D/T METAR WX W/DIR W/SPE G/SPE TEMP DEWP
7/12/19 23:20 EGNT 072320Z 21016KT 170V230 9999 BKN018 10/08 Q0988 SSW (210°) 18.4mph 10°C 8°C
7/12/19 22:20 EGNT 072220Z 20015G28KT 170V230 9999 BKN015 10/08 Q0991 SSW (200°) 17.3mph 32.2mph 10°C 8°C
7/12/19 21:50 EGNT 072150Z 21021KT 180V240 9999 BKN015 10/08 Q0991 SSW (210°) 24.2mph 10°C 8°C
7/12/19 20:50 EGNT 072050Z 20014G26KT 9999 BKN013 10/08 Q0994 SSW (200°) 16.1mph 29.9mph 10°C 8°C
7/12/19 20:20 EGNT 072020Z 21017G27KT 170V240 9999 BKN013 10/08 Q0996 SSW (210°) 19.6mph 31.1mph 10°C 8°C
7/12/19 19:50 EGNT 071950Z 21017G28KT 9999 SCT015 SCT030 10/08 Q0996 SSW (210°) 19.6mph 32.2mph 10°C 8°C
7/12/19 19:20 EGNT 071920Z 21018G29KT 9999 SCT015 SCT030 10/08 Q0997 SSW (210°) 20.7mph 33.4mph 10°C 8°C
7/12/19 18:50 EGNT 071850Z 22017G28KT 170V250 9999 FEW015 SCT030 10/08 Q0998 SW (220°) 19.6mph 32.2mph 10°C 8°C
7/12/19 18:20 EGNT 071820Z 21015G25KT 180V240 9999 SCT030 10/08 Q0999 SSW (210°) 17.3mph 28.8mph 10°C 8°C
7/12/19 17:50 EGNT 071750Z 22012KT 180V240 9999 BKN030 10/08 Q1000 SW (220°) 13.8mph 10°C 8°C
7/12/19 17:20 EGNT 071720Z 21011KT 170V240 7000 -RA BKN025 09/08 Q1001 -RA SSW (210°) 12.7mph 9°C 8°C
7/12/19 16:50 EGNT 071650Z 23012KT 190V260 8000 BKN026 09/08 Q1001 SW (230°) 13.8mph 9°C 8°C
7/12/19 15:50 EGNT 071550Z 21009KT 9999 SCT030 09/07 Q1002 SSW (210°) 10.4mph 9°C 7°C
7/12/19 15:20 EGNT 071520Z 22010KT 190V260 9999 -SHRA SCT030 09/07 Q1003 -SHRA SW (220°) 11.5mph 9°C 7°C
7/12/19 14:50 EGNT 071450Z 22013KT 190V250 9999 SCT020 09/07 Q1003 SW (220°) 15.0mph 9°C 7°C
7/12/19 14:20 EGNT 071420Z 22011KT 190V250 9999 SCT030 09/07 Q1003 SW (220°) 12.7mph 9°C 7°C
7/12/19 13:50 EGNT 071350Z 23007KT 170V260 9999 SCT030 09/07 Q1004 SW (230°) 8.1mph 9°C 7°C
7/12/19 13:20 EGNT 071320Z 23008KT 9999 SCT020 09/07 Q1004 SW (230°) 9.2mph 9°C 7°C
7/12/19 12:20 EGNT 071220Z 24008KT 200V270 9999 SCT020 09/07 Q1006 WSW (240°) 9.2mph 9°C 7°C
7/12/19 11:50 EGNT 071150Z 24010KT 210V270 7000 VCSH SCT020 09/07 Q1006 VCSH WSW (240°) 11.5mph 9°C 7°C
7/12/19 11:20 EGNT 071120Z 25009KT 9999 SCT020 09/07 Q1006 WSW (250°) 10.4mph 9°C 7°C
7/12/19 10:50 EGNT 071050Z 25011KT 9999 BKN015 08/07 Q1006 WSW (250°) 12.7mph 8°C 7°C
7/12/19 10:20 EGNT 071020Z 25011KT 9999 SCT015 08/07 Q1006 WSW (250°) 12.7mph 8°C 7°C
7/12/19 09:50 EGNT 070950Z 25012KT 9999 SCT015 08/06 Q1007 WSW (250°) 13.8mph 8°C 6°C
7/12/19 09:20 EGNT 070920Z 26012KT 9999 FEW015 SCT025 07/06 Q1006 W (260°) 13.8mph 7°C 6°C
7/12/19 08:50 EGNT 070850Z 26012KT 9999 SCT015 SCT025 08/06 Q1006 W (260°) 13.8mph 8°C 6°C
7/12/19 08:20 EGNT 070820Z 26011KT 9999 SCT010 SCT030 08/07 Q1006 W (260°) 12.7mph 8°C 7°C
7/12/19 07:50 EGNT 070750Z 25009KT 9999 BKN010 08/07 Q1006 WSW (250°) 10.4mph 8°C 7°C
7/12/19 07:20 EGNT 070720Z 26012KT 9999 BKN010 08/07 Q1006 W (260°) 13.8mph 8°C 7°C
7/12/19 06:50 EGNT 070650Z 25010KT 9999 SCT010 07/07 Q1006 WSW (250°) 11.5mph 7°C 7°C
7/12/19 06:20 EGNT 070620Z 26017KT 9999 SCT013 08/07 Q1005 W (260°) 19.6mph 8°C 7°C
7/12/19 05:50 EGNT 070550Z 27018KT 9999 SCT015 07/07 Q1005 W (270°) 20.7mph 7°C 7°C
7/12/19 05:20 EGNT 070520Z 27018KT 9999 SCT011 07/07 Q1004 W (270°) 20.7mph 7°C 7°C
7/12/19 04:50 EGNT 070450Z 27017KT 9999 BKN015 07/07 Q1004 W (270°) 19.6mph 7°C 7°C
7/12/19 04:20 EGNT 070420Z 27018KT 9999 SCT017 08/07 Q1004 W (270°) 20.7mph 8°C 7°C
7/12/19 03:50 EGNT 070350Z 27017KT 9999 FEW021 08/07 Q1004 W (270°) 19.6mph 8°C 7°C
7/12/19 03:20 EGNT 070320Z 27013KT 9999 FEW021 07/07 Q1004 W (270°) 15.0mph 7°C 7°C
7/12/19 02:50 EGNT 070250Z 27013KT CAVOK 07/07 Q1004 W (270°) 15.0mph 7°C 7°C
7/12/19 02:20 EGNT 070220Z 27016KT CAVOK 07/07 Q1003 W (270°) 18.4mph 7°C 7°C
7/12/19 01:50 EGNT 070150Z 27017KT CAVOK 07/07 Q1003 W (270°) 19.6mph 7°C 7°C
7/12/19 01:20 EGNT 070120Z 28017KT 9999 FEW009 07/07 Q1002 W (280°) 19.6mph 7°C 7°C
7/12/19 00:50 EGNT 070050Z 28016KT 9999 FEW009 07/06 Q1002 W (280°) 18.4mph 7°C 6°C
6/12/19 23:50 EGNT 062350Z 28008KT 9999 SCT011 07/06 Q1002 W (280°) 9.2mph 7°C 6°C
6/12/19 23:20 EGNT 062320Z 27012KT CAVOK 07/07 Q1002 W (270°) 13.8mph 7°C 7°C
6/12/19 22:50 EGNT 062250Z 27014KT CAVOK 07/07 Q1001 W (270°) 16.1mph 7°C 7°C
6/12/19 22:20 EGNT 062220Z 28018KT CAVOK 07/07 Q1001 W (280°) 20.7mph 7°C 7°C
6/12/19 21:50 EGNT 062150Z 28018KT 9999 FEW011 07/07 Q1000 W (280°) 20.7mph 7°C 7°C
6/12/19 21:20 EGNT 062120Z 26012KT 9999 FEW011 07/07 Q1000 W (260°) 13.8mph 7°C 7°C